Time;durP1;ratioP1;P1;durP2;ratioP2;P2;SDS_P1;SDS_P2;PMS_P1;PMS_P2;Temp;Humidity;BMP_temperature;BMP_pressure;BME280_temperature;BME280_humidity;BME280_pressure;Samples;Min_cycle;Max_cycle;Signal;HPM_P1;HPM_P2
2024/01/31 00:00:07;;;;;;;6.85;0.82;;;5.50;99.90;;;;;;5070572;28;20089;-54
2024/01/31 00:02:33;;;;;;;3.13;1.13;;;5.90;99.90;;;;;;5067944;28;20052;-57
2024/01/31 00:04:59;;;;;;;6.97;1.00;;;5.40;99.90;;;;;;5070544;28;20028;-57
2024/01/31 00:07:24;;;;;;;7.03;1.48;;;5.40;99.90;;;;;;5070482;28;20040;-57
2024/01/31 00:09:50;;;;;;;7.85;1.33;;;5.80;99.90;;;;;;5070608;28;20599;-55
2024/01/31 00:12:16;;;;;;;6.10;1.40;;;5.20;99.90;;;;;;5070281;28;20045;-54
2024/01/31 00:14:45;;;;;;;7.60;1.20;;;5.20;99.90;;;;;;5070408;28;20039;-55
2024/01/31 00:17:11;;;;;;;8.35;1.10;;;5.70;99.90;;;;;;5069887;28;20041;-55
2024/01/31 00:19:36;;;;;;;6.20;1.20;;;6.20;99.90;;;;;;5070183;28;20506;-54
2024/01/31 00:22:02;;;;;;;8.02;1.42;;;5.30;99.90;;;;;;5070125;28;20045;-57
2024/01/31 00:24:28;;;;;;;6.70;0.90;;;5.10;99.90;;;;;;5070223;28;20075;-54
2024/01/31 00:26:53;;;;;;;3.45;0.77;;;5.20;99.90;;;;;;5073435;28;20515;-55
2024/01/31 00:29:19;;;;;;;5.40;0.70;;;5.80;99.90;;;;;;5072164;28;20114;-56
2024/01/31 00:31:45;;;;;;;4.57;0.85;;;5.40;99.90;;;;;;5073820;28;20043;-58
2024/01/31 00:34:11;;;;;;;4.50;0.85;;;5.80;99.90;;;;;;5074087;28;20044;-57
2024/01/31 00:36:36;;;;;;;6.43;0.70;;;5.20;99.90;;;;;;5073807;28;20494;-57
2024/01/31 00:39:02;;;;;;;4.93;0.70;;;5.60;99.90;;;;;;5073781;28;20033;-55
2024/01/31 00:41:29;;;;;;;4.38;0.85;;;5.60;99.90;;;;;;5074220;28;20040;-56
2024/01/31 00:43:55;;;;;;;6.45;1.05;;;5.60;99.90;;;;;;5073897;28;20063;-55
2024/01/31 00:46:21;;;;;;;4.00;0.80;;;5.00;99.90;;;;;;5072940;28;20395;-58
2024/01/31 00:48:47;;;;;;;7.28;0.80;;;5.70;99.90;;;;;;5072624;28;20361;-58
2024/01/31 00:51:13;;;;;;;6.15;0.80;;;5.80;99.90;;;;;;5073774;28;20032;-55
2024/01/31 00:53:39;;;;;;;4.85;0.90;;;5.30;99.90;;;;;;5073626;28;20044;-56
2024/01/31 00:56:05;;;;;;;3.95;1.00;;;5.00;99.90;;;;;;5073700;28;20480;-55
2024/01/31 00:58:32;;;;;;;6.28;0.80;;;5.00;99.90;;;;;;5072805;28;20032;-54
2024/01/31 01:00:58;;;;;;;4.65;0.80;;;5.70;99.90;;;;;;5072257;28;20036;-56
2024/01/31 01:03:23;;;;;;;3.83;0.80;;;5.40;99.90;;;;;;5073280;28;20507;-58
2024/01/31 01:05:49;;;;;;;6.45;0.95;;;5.10;99.90;;;;;;5073732;28;20035;-56
2024/01/31 01:08:14;;;;;;;4.75;0.90;;;5.20;99.90;;;;;;5073496;28;20064;-58
2024/01/31 01:10:40;;;;;;;9.85;1.20;;;5.00;99.90;;;;;;5073333;28;20074;-54
2024/01/31 01:13:06;;;;;;;9.45;1.02;;;5.80;99.90;;;;;;5073293;28;20036;-56
2024/01/31 01:15:32;;;;;;;8.40;1.10;;;5.50;99.90;;;;;;5073427;28;20526;-57
2024/01/31 01:17:58;;;;;;;9.63;0.90;;;5.60;99.90;;;;;;5073445;28;20024;-56
2024/01/31 01:20:23;;;;;;;3.17;0.90;;;5.10;99.90;;;;;;5072337;28;20036;-57
2024/01/31 01:22:49;;;;;;;7.68;1.08;;;5.60;99.90;;;;;;5072921;28;20048;-56
2024/01/31 01:25:16;;;;;;;3.30;0.85;;;5.00;99.90;;;;;;5073214;28;20075;-56
2024/01/31 01:27:48;;;;;;;5.57;1.10;;;5.50;99.90;;;;;;5072514;28;20099;-55
2024/01/31 01:30:14;;;;;;;5.30;0.90;;;5.60;99.90;;;;;;5073398;28;20460;-57
2024/01/31 01:32:39;;;;;;;5.78;0.77;;;5.20;99.90;;;;;;5070753;28;20039;-55
2024/01/31 01:35:05;;;;;;;9.68;1.10;;;5.60;99.90;;;;;;5073300;28;20064;-58
2024/01/31 01:37:31;;;;;;;5.28;1.27;;;5.20;99.90;;;;;;5072339;28;20037;-55
2024/01/31 01:39:56;;;;;;;3.85;1.20;;;5.50;99.90;;;;;;5071680;28;20380;-58
2024/01/31 01:42:22;;;;;;;6.63;1.17;;;5.30;99.90;;;;;;5071362;28;20044;-54
2024/01/31 01:44:48;;;;;;;5.55;0.90;;;4.80;99.90;;;;;;5072978;28;20395;-55
2024/01/31 01:47:15;;;;;;;7.10;1.08;;;5.20;99.90;;;;;;5072813;28;20502;-56
2024/01/31 01:49:41;;;;;;;8.60;1.08;;;5.00;99.90;;;;;;5072786;28;20100;-56
2024/01/31 01:52:08;;;;;;;5.30;0.90;;;4.70;99.90;;;;;;5072791;28;20044;-55
2024/01/31 01:54:35;;;;;;;5.60;0.70;;;5.00;99.90;;;;;;5073170;28;20051;-56
2024/01/31 01:57:01;;;;;;;9.02;1.17;;;4.80;99.90;;;;;;5072302;28;20051;-57
2024/01/31 01:59:27;;;;;;;7.13;1.10;;;4.70;99.90;;;;;;5071377;28;20585;-56
2024/01/31 02:01:53;;;;;;;10.32;1.40;;;5.50;99.90;;;;;;5072601;28;20125;-57
2024/01/31 02:04:21;;;;;;;9.38;1.08;;;4.80;99.90;;;;;;5072615;28;20082;-54
2024/01/31 02:06:47;;;;;;;5.40;0.95;;;5.10;99.90;;;;;;5072206;28;20064;-55
2024/01/31 02:09:13;;;;;;;11.73;1.25;;;5.40;99.90;;;;;;5072492;28;20121;-54
2024/01/31 02:11:39;;;;;;;5.35;1.17;;;5.00;99.90;;;;;;5070942;28;20036;-57
2024/01/31 02:14:04;;;;;;;7.13;1.05;;;4.70;99.90;;;;;;5072448;28;20480;-57
2024/01/31 02:16:30;;;;;;;4.30;0.93;;;5.50;99.90;;;;;;5070190;28;20037;-57
2024/01/31 02:18:56;;;;;;;10.18;1.17;;;5.50;99.90;;;;;;5086555;28;20036;-57
2024/01/31 02:21:27;;;;;;;8.10;1.10;;;5.40;99.90;;;;;;5072164;28;20434;-58
2024/01/31 02:23:52;;;;;;;7.80;1.00;;;4.70;99.90;;;;;;5071301;28;20124;-56
2024/01/31 02:26:18;;;;;;;11.40;1.20;;;5.20;99.90;;;;;;5071933;28;20183;-58
2024/01/31 02:28:43;;;;;;;5.03;1.08;;;4.70;99.90;;;;;;5071677;28;20060;-55
2024/01/31 02:31:09;;;;;;;6.93;1.00;;;5.00;99.90;;;;;;5070345;28;20061;-56
2024/01/31 02:33:35;;;;;;;4.70;1.00;;;5.30;99.90;;;;;;5072145;28;20040;-59
2024/01/31 02:36:00;;;;;;;3.95;1.10;;;5.40;99.90;;;;;;5071739;28;20758;-55
2024/01/31 02:38:26;;;;;;;7.38;0.90;;;5.40;99.90;;;;;;5071520;28;20449;-57
2024/01/31 02:40:52;;;;;;;4.03;0.98;;;5.40;99.90;;;;;;5071678;28;20454;-56
2024/01/31 02:43:17;;;;;;;7.22;1.42;;;4.80;99.90;;;;;;5071352;28;20059;-58
2024/01/31 02:45:43;;;;;;;4.78;0.88;;;4.90;99.90;;;;;;5068781;28;20036;-57
2024/01/31 02:48:09;;;;;;;6.82;1.10;;;4.70;99.90;;;;;;5070508;28;20040;-55
2024/01/31 02:50:34;;;;;;;5.63;1.15;;;5.30;99.90;;;;;;5069934;28;20032;-55
2024/01/31 02:53:01;;;;;;;7.43;1.15;;;4.90;99.90;;;;;;5071379;28;20045;-56
2024/01/31 02:55:26;;;;;;;10.35;0.93;;;5.40;99.90;;;;;;5071216;28;20028;-54
2024/01/31 02:57:52;;;;;;;5.95;0.80;;;5.00;99.90;;;;;;5071404;28;20081;-56
2024/01/31 03:00:18;;;;;;;7.13;0.90;;;4.90;99.90;;;;;;5069943;28;20437;-58
2024/01/31 03:02:44;;;;;;;6.90;1.00;;;4.70;99.90;;;;;;5069501;28;20048;-57
2024/01/31 03:05:11;;;;;;;6.13;1.20;;;4.80;99.90;;;;;;5069842;28;20399;-56
2024/01/31 03:07:36;;;;;;;8.27;1.33;;;5.40;99.90;;;;;;5071328;28;20036;-54
2024/01/31 03:10:02;;;;;;;5.97;0.80;;;5.10;99.90;;;;;;5070811;28;20085;-57
2024/01/31 03:12:28;;;;;;;8.07;1.10;;;5.40;99.90;;;;;;5071132;28;20126;-55
2024/01/31 03:14:54;;;;;;;8.05;1.23;;;4.90;99.90;;;;;;5071109;28;20094;-58
2024/01/31 03:17:20;;;;;;;5.90;1.08;;;5.50;99.90;;;;;;5071272;28;20045;-57
2024/01/31 03:19:45;;;;;;;6.43;0.73;;;4.70;99.90;;;;;;5069603;28;20063;-58
2024/01/31 03:22:11;;;;;;;3.03;0.70;;;5.20;99.90;;;;;;5070839;28;20403;-56
2024/01/31 03:24:38;;;;;;;4.30;1.08;;;5.40;99.90;;;;;;5070683;28;20160;-57
2024/01/31 03:27:04;;;;;;;10.77;1.25;;;5.30;99.90;;;;;;5071166;28;20040;-54
2024/01/31 03:29:30;;;;;;;5.05;0.88;;;4.80;99.90;;;;;;5070812;28;20123;-55
2024/01/31 03:31:57;;;;;;;10.00;1.10;;;5.40;99.90;;;;;;5070454;28;20128;-55
2024/01/31 03:34:23;;;;;;;6.65;1.02;;;4.80;99.90;;;;;;5070742;28;20075;-56
2024/01/31 03:36:48;;;;;;;6.68;0.98;;;5.50;99.90;;;;;;5070556;28;20505;-57
2024/01/31 03:39:14;;;;;;;6.10;0.93;;;5.40;99.90;;;;;;5070794;28;20040;-58
2024/01/31 03:41:46;;;;;;;6.93;1.05;;;5.60;99.90;;;;;;5071009;28;20040;-55
2024/01/31 03:44:13;;;;;;;11.98;1.40;;;5.50;99.90;;;;;;5070964;28;20044;-57
2024/01/31 03:46:39;;;;;;;5.75;1.02;;;5.00;99.90;;;;;;5068046;28;20080;-56
2024/01/31 03:49:05;;;;;;;8.18;1.17;;;5.40;99.90;;;;;;5070588;28;20036;-54
2024/01/31 03:51:30;;;;;;;10.30;1.17;;;5.10;99.90;;;;;;5070700;28;20044;-57
2024/01/31 03:53:56;;;;;;;10.48;1.33;;;5.30;99.90;;;;;;5070144;28;20079;-57
2024/01/31 03:56:22;;;;;;;7.38;1.33;;;5.10;99.90;;;;;;5070732;28;20494;-58
2024/01/31 03:58:47;;;;;;;9.40;1.50;;;5.40;99.90;;;;;;5070035;28;20054;-58
2024/01/31 04:01:17;;;;;;;6.80;1.15;;;5.40;99.90;;;;;;5070668;28;20040;-57
2024/01/31 04:03:44;;;;;;;8.10;1.50;;;5.50;99.90;;;;;;5069807;28;20041;-58
2024/01/31 04:06:10;;;;;;;7.75;1.67;;;4.80;99.90;;;;;;5070726;28;20488;-54
2024/01/31 04:08:36;;;;;;;6.40;1.48;;;5.70;99.90;;;;;;5070510;28;20040;-56
2024/01/31 04:11:02;;;;;;;8.45;1.83;;;4.80;99.90;;;;;;5069532;28;20025;-56
2024/01/31 04:13:28;;;;;;;9.73;1.70;;;5.00;99.90;;;;;;5070649;28;20060;-56
2024/01/31 04:15:54;;;;;;;10.00;1.80;;;4.70;99.90;;;;;;5070310;28;20089;-56
2024/01/31 04:18:20;;;;;;;7.18;1.63;;;4.90;99.90;;;;;;5070435;28;20048;-57
2024/01/31 04:20:46;;;;;;;11.63;1.98;;;4.90;99.90;;;;;;5068943;28;20024;-57
2024/01/31 04:23:12;;;;;;;15.13;2.00;;;5.40;99.90;;;;;;5052215;28;20055;-56
2024/01/31 04:25:38;;;;;;;7.40;1.70;;;5.50;99.90;;;;;;5068810;28;20048;-54
2024/01/31 04:28:04;;;;;;;10.63;2.13;;;5.00;99.90;;;;;;5071597;28;20043;-56
2024/01/31 04:30:29;;;;;;;12.07;2.00;;;5.50;99.90;;;;;;5078029;28;20059;-58
2024/01/31 04:32:58;;;;;;;9.82;1.80;;;5.00;99.90;;;;;;5067727;28;20464;-57
2024/01/31 04:35:24;;;;;;;8.77;2.22;;;4.80;99.90;;;;;;5070293;28;20075;-55
2024/01/31 04:37:50;;;;;;;12.88;2.60;;;4.90;99.90;;;;;;5069838;28;20525;-56
2024/01/31 04:40:15;;;;;;;11.60;2.70;;;5.30;99.90;;;;;;5070346;28;20245;-57
2024/01/31 04:42:41;;;;;;;12.90;2.90;;;4.80;99.90;;;;;;5070347;28;20072;-53
2024/01/31 04:45:08;;;;;;;13.70;2.90;;;5.40;99.90;;;;;;5069151;28;20066;-56
2024/01/31 04:47:34;;;;;;;14.63;3.58;;;5.50;99.90;;;;;;5070269;28;20121;-57
2024/01/31 04:49:59;;;;;;;11.55;4.15;;;5.00;99.90;;;;;;5069807;28;20105;-58
2024/01/31 04:52:25;;;;;;;13.00;4.47;;;5.00;99.90;;;;;;5069932;28;20086;-57
2024/01/31 04:54:51;;;;;;;15.43;4.22;;;5.20;99.90;;;;;;5070077;28;20506;-56
2024/01/31 04:57:18;;;;;;;15.55;4.65;;;4.80;99.90;;;;;;5069552;28;20123;-56
2024/01/31 04:59:43;;;;;;;13.13;4.43;;;4.60;99.90;;;;;;5069978;28;20035;-57
2024/01/31 05:02:09;;;;;;;14.43;4.40;;;5.20;99.90;;;;;;5070000;28;20487;-54
2024/01/31 05:04:39;;;;;;;9.52;4.13;;;5.00;99.90;;;;;;5070001;28;20029;-55
2024/01/31 05:07:05;;;;;;;11.93;4.55;;;5.40;99.90;;;;;;5069973;28;20139;-57
2024/01/31 05:09:32;;;;;;;16.02;4.28;;;4.90;99.90;;;;;;5070045;28;20115;-56
2024/01/31 05:11:57;;;;;;;13.13;4.05;;;4.60;99.90;;;;;;5071603;28;20047;-56
2024/01/31 05:14:24;;;;;;;11.07;4.20;;;5.30;99.90;;;;;;5073670;28;20032;-54
2024/01/31 05:16:50;;;;;;;10.60;4.10;;;5.50;99.90;;;;;;5071440;28;20403;-55
2024/01/31 05:19:16;;;;;;;13.45;4.35;;;4.60;99.90;;;;;;5071978;28;20397;-55
2024/01/31 05:21:49;;;;;;;13.93;4.97;;;5.30;99.90;;;;;;5072829;28;20032;-56
2024/01/31 05:24:15;;;;;;;14.07;5.07;;;5.40;99.90;;;;;;5072078;28;20430;-56
2024/01/31 05:26:43;;;;;;;15.07;5.03;;;4.60;99.90;;;;;;5073265;28;20051;-55
2024/01/31 05:29:09;;;;;;;12.43;5.10;;;5.40;99.90;;;;;;5072809;28;20551;-56
2024/01/31 05:31:35;;;;;;;13.60;4.50;;;4.90;99.90;;;;;;5072975;28;20045;-58
2024/01/31 05:34:00;;;;;;;11.40;4.63;;;5.40;99.90;;;;;;5070973;28;20126;-55
2024/01/31 05:36:26;;;;;;;13.50;4.70;;;5.30;99.90;;;;;;5073167;28;20078;-57
2024/01/31 05:38:51;;;;;;;16.48;4.72;;;5.60;99.90;;;;;;5073435;28;20086;-58
2024/01/31 05:41:17;;;;;;;15.40;4.65;;;5.10;99.90;;;;;;5073255;28;20078;-55
2024/01/31 05:43:43;;;;;;;16.23;4.20;;;4.90;99.90;;;;;;5073087;28;20388;-55
2024/01/31 05:46:09;;;;;;;12.23;3.97;;;5.40;99.90;;;;;;5072636;28;20437;-57
2024/01/31 05:48:35;;;;;;;13.43;4.22;;;4.70;99.90;;;;;;5072600;28;20094;-58
2024/01/31 05:51:00;;;;;;;9.52;3.80;;;4.80;99.90;;;;;;5072612;28;20040;-57
2024/01/31 05:53:26;;;;;;;13.77;3.80;;;5.30;99.90;;;;;;5072769;28;20040;-57
2024/01/31 05:55:52;;;;;;;8.05;2.95;;;5.40;99.90;;;;;;5071526;28;20096;-57
2024/01/31 05:58:17;;;;;;;11.05;3.25;;;4.60;99.90;;;;;;5072374;28;20476;-58
2024/01/31 06:00:48;;;;;;;9.07;2.70;;;5.20;99.90;;;;;;5071163;28;20067;-57
2024/01/31 06:03:15;;;;;;;9.70;3.00;;;4.90;99.90;;;;;;5069401;28;20091;-56
2024/01/31 06:05:41;;;;;;;7.45;3.17;;;4.70;99.90;;;;;;5072214;28;20036;-57
2024/01/31 06:08:07;;;;;;;7.40;3.00;;;4.80;99.90;;;;;;5072647;28;20032;-55
2024/01/31 06:10:33;;;;;;;5.95;2.78;;;5.30;99.90;;;;;;5072433;28;20031;-58
2024/01/31 06:12:59;;;;;;;8.48;3.20;;;4.80;99.90;;;;;;5072465;28;20044;-58
2024/01/31 06:15:25;;;;;;;7.68;3.40;;;5.10;99.90;;;;;;5072359;28;20032;-57
2024/01/31 06:17:51;;;;;;;10.98;3.80;;;5.20;99.90;;;;;;5072667;28;20379;-57
2024/01/31 06:20:17;;;;;;;6.82;3.42;;;5.20;99.90;;;;;;5072554;28;20040;-57
2024/01/31 06:22:43;;;;;;;8.32;3.90;;;4.90;99.90;;;;;;5071989;28;20051;-57
2024/01/31 06:25:09;;;;;;;12.27;4.20;;;5.20;99.90;;;;;;5072458;28;20119;-56
2024/01/31 06:27:37;;;;;;;10.02;4.10;;;4.90;99.90;;;;;;5071769;28;20044;-55
2024/01/31 06:30:05;;;;;;;15.45;4.95;;;5.30;99.90;;;;;;5069333;28;20060;-58
2024/01/31 06:32:37;;;;;;;14.40;5.53;;;4.70;99.90;;;;;;5071423;28;20106;-57
2024/01/31 06:35:03;;;;;;;12.10;5.05;;;4.70;99.90;;;;;;5070591;28;20037;-58
2024/01/31 06:37:29;;;;;;;13.25;5.53;;;5.20;99.90;;;;;;5070120;28;20036;-54
2024/01/31 06:39:55;;;;;;;10.18;5.35;;;4.80;99.90;;;;;;5069452;28;20059;-56
2024/01/31 06:42:21;;;;;;;16.00;5.80;;;4.70;99.90;;;;;;5071787;28;20487;-56
2024/01/31 06:44:46;;;;;;;12.30;5.00;;;5.10;99.90;;;;;;5071514;28;20060;-54
2024/01/31 06:47:12;;;;;;;14.25;6.07;;;4.90;99.90;;;;;;5069690;28;20028;-57
2024/01/31 06:49:38;;;;;;;12.43;6.50;;;5.10;99.90;;;;;;5071362;28;20480;-58
2024/01/31 06:52:06;;;;;;;13.02;6.07;;;4.90;99.90;;;;;;5071629;28;20059;-57
2024/01/31 06:54:32;;;;;;;15.52;6.40;;;5.00;99.90;;;;;;5070024;28;20423;-56
2024/01/31 06:56:57;;;;;;;13.80;6.25;;;5.00;99.90;;;;;;5071696;28;20085;-57
2024/01/31 06:59:23;;;;;;;11.68;6.07;;;4.80;99.90;;;;;;5069797;28;20041;-59
2024/01/31 07:01:49;;;;;;;12.88;6.47;;;4.90;99.90;;;;;;5071208;28;20055;-57
2024/01/31 07:04:14;;;;;;;12.70;4.97;;;5.30;99.90;;;;;;5071317;28;20601;-56
2024/01/31 07:06:40;;;;;;;11.00;4.00;;;5.10;99.90;;;;;;5071502;28;20075;-56
2024/01/31 07:09:06;;;;;;;8.43;4.20;;;4.90;99.90;;;;;;5071342;28;20038;-58
2024/01/31 07:11:31;;;;;;;10.27;4.15;;;5.10;99.90;;;;;;5071185;28;20121;-57
2024/01/31 07:13:57;;;;;;;11.20;4.32;;;4.80;99.90;;;;;;5071162;28;20036;-57
2024/01/31 07:16:23;;;;;;;10.05;4.18;;;4.90;99.90;;;;;;5069138;28;20029;-57
2024/01/31 07:18:48;;;;;;;10.32;3.92;;;5.00;99.90;;;;;;5070983;28;20032;-57
2024/01/31 07:21:23;;;;;;;11.55;4.32;;;5.10;99.90;;;;;;5071064;28;20032;-57
2024/01/31 07:23:49;;;;;;;13.05;5.10;;;5.10;99.90;;;;;;5070995;28;20123;-58
2024/01/31 07:26:26;;;;;;;10.48;4.65;;;5.10;99.90;;;;;;5069874;28;20123;-57
2024/01/31 07:28:52;;;;;;;10.75;4.55;;;5.30;99.90;;;;;;5070085;28;20043;-56
2024/01/31 07:31:18;;;;;;;8.40;4.47;;;4.90;99.90;;;;;;5068552;28;20056;-55
2024/01/31 07:33:45;;;;;;;8.93;4.57;;;4.90;99.90;;;;;;5067290;28;20419;-56
2024/01/31 07:36:11;;;;;;;11.18;5.50;;;5.10;99.90;;;;;;5070866;28;20119;-55
2024/01/31 07:38:40;;;;;;;11.73;4.40;;;4.80;99.90;;;;;;5069114;28;20166;-58
2024/01/31 07:41:06;;;;;;;11.82;4.38;;;4.80;99.90;;;;;;5070749;28;20120;-57
2024/01/31 07:43:32;;;;;;;7.63;3.35;;;4.90;99.90;;;;;;5070394;28;20454;-56
2024/01/31 07:45:57;;;;;;;7.82;3.60;;;5.00;99.90;;;;;;5070760;28;20044;-58
2024/01/31 07:48:23;;;;;;;10.40;4.55;;;5.10;99.90;;;;;;5070562;28;20036;-56
2024/01/31 07:50:49;;;;;;;15.70;4.88;;;5.00;99.90;;;;;;5069293;28;20048;-58
2024/01/31 07:53:15;;;;;;;11.32;4.47;;;5.00;99.90;;;;;;5068513;28;20041;-56
2024/01/31 07:55:40;;;;;;;10.77;3.80;;;4.90;99.90;;;;;;5070395;28;20033;-57
2024/01/31 07:58:06;;;;;;;11.70;4.10;;;5.30;99.90;;;;;;5069427;28;20032;-55
2024/01/31 08:00:32;;;;;;;8.48;3.67;;;5.10;99.90;;;;;;5069429;28;20048;-56
2024/01/31 08:02:58;;;;;;;10.18;3.80;;;4.80;99.90;;;;;;5069862;28;20032;-58
2024/01/31 08:05:23;;;;;;;10.23;3.35;;;5.00;99.90;;;;;;5070559;28;20044;-56
2024/01/31 08:07:49;;;;;;;6.88;3.28;;;5.10;99.90;;;;;;5061558;28;20037;-56
2024/01/31 08:10:15;;;;;;;7.97;3.25;;;5.00;99.90;;;;;;5065023;28;20032;-58
2024/01/31 08:12:42;;;;;;;11.25;3.25;;;5.20;99.90;;;;;;5062674;28;20044;-58
2024/01/31 08:15:08;;;;;;;14.57;4.40;;;5.00;99.90;;;;;;5062409;28;20045;-58
2024/01/31 08:17:34;;;;;;;8.38;3.70;;;5.20;99.90;;;;;;5063423;28;20040;-58
2024/01/31 08:20:00;;;;;;;10.60;3.42;;;5.10;99.90;;;;;;5061755;28;20094;-55
2024/01/31 08:22:26;;;;;;;10.75;3.53;;;5.10;99.90;;;;;;5064492;28;20369;-56
2024/01/31 08:24:51;;;;;;;5.70;3.03;;;5.40;99.90;;;;;;5064001;28;20047;-56
2024/01/31 08:27:20;;;;;;;7.57;3.10;;;5.20;99.90;;;;;;5061807;28;20049;-55
2024/01/31 08:29:45;;;;;;;6.38;3.70;;;5.10;99.90;;;;;;5061655;28;20044;-57
2024/01/31 08:32:11;;;;;;;8.07;3.33;;;5.20;99.90;;;;;;5064177;28;20106;-57
2024/01/31 08:34:37;;;;;;;7.85;3.55;;;5.20;99.90;;;;;;5064620;28;20488;-55
2024/01/31 08:37:03;;;;;;;7.05;3.70;;;5.30;99.90;;;;;;5065980;28;20020;-57
2024/01/31 08:39:32;;;;;;;6.00;3.60;;;5.30;99.90;;;;;;5064542;28;20062;-54
2024/01/31 08:41:57;;;;;;;7.20;3.75;;;5.20;99.90;;;;;;5064135;28;20044;-55
2024/01/31 08:44:23;;;;;;;6.63;3.45;;;5.40;99.90;;;;;;5063084;28;20511;-56
2024/01/31 08:46:49;;;;;;;6.88;3.67;;;5.30;99.90;;;;;;5064251;28;20404;-55
2024/01/31 08:49:15;;;;;;;7.72;3.30;;;5.30;99.90;;;;;;5066579;28;20040;-56
2024/01/31 08:51:41;;;;;;;11.15;3.53;;;5.30;99.90;;;;;;5066165;28;20376;-59
2024/01/31 08:54:06;;;;;;;9.25;3.63;;;5.30;99.90;;;;;;5068479;28;20063;-57
2024/01/31 08:56:33;;;;;;;8.63;3.47;;;5.20;99.90;;;;;;5067806;28;20072;-56
2024/01/31 08:58:59;;;;;;;7.47;3.90;;;6.10;99.90;;;;;;5067208;28;20047;-55
2024/01/31 09:01:25;;;;;;;9.20;3.47;;;5.40;99.90;;;;;;5067820;28;20311;-56
2024/01/31 09:03:51;;;;;;;7.50;3.83;;;5.30;99.90;;;;;;5067118;28;20040;-52
2024/01/31 09:06:17;;;;;;;8.68;3.47;;;5.30;99.90;;;;;;5068745;28;20388;-57
2024/01/31 09:08:43;;;;;;;8.65;3.40;;;5.40;99.90;;;;;;5068962;28;20033;-56
2024/01/31 09:11:09;;;;;;;7.18;3.63;;;5.30;99.90;;;;;;5066769;28;20453;-53
2024/01/31 09:13:35;;;;;;;7.90;3.75;;;5.30;99.90;;;;;;5069441;28;20047;-56
2024/01/31 09:16:01;;;;;;;10.85;3.70;;;5.30;99.90;;;;;;5067643;28;20564;-56
2024/01/31 09:18:28;;;;;;;12.43;4.28;;;5.30;99.90;;;;;;5067861;28;20029;-56
2024/01/31 09:20:54;;;;;;;7.25;4.25;;;5.40;99.90;;;;;;5069467;28;20040;-57
2024/01/31 09:23:20;;;;;;;7.97;4.40;;;5.40;99.90;;;;;;5067538;28;20045;-55
2024/01/31 09:25:46;;;;;;;8.27;4.00;;;5.60;99.90;;;;;;5066933;28;20441;-55
2024/01/31 09:28:12;;;;;;;8.70;3.72;;;5.60;99.90;;;;;;5062451;28;20147;-54
2024/01/31 09:30:38;;;;;;;9.23;4.40;;;5.60;99.90;;;;;;5065338;28;20174;-55
2024/01/31 09:33:03;;;;;;;7.68;3.83;;;5.50;99.90;;;;;;5066567;28;20499;-56
2024/01/31 09:35:29;;;;;;;9.02;4.20;;;5.70;99.90;;;;;;5066424;28;20021;-55
2024/01/31 09:37:55;;;;;;;7.88;4.35;;;5.60;99.90;;;;;;5067468;28;20041;-56
2024/01/31 09:40:23;;;;;;;11.10;4.38;;;5.50;99.90;;;;;;5068601;28;20068;-56
2024/01/31 09:42:51;;;;;;;9.75;4.30;;;5.70;99.90;;;;;;5079698;28;20064;-58
2024/01/31 09:45:17;;;;;;;12.57;4.90;;;5.90;99.90;;;;;;5064661;28;20083;-56
2024/01/31 09:47:46;;;;;;;7.38;3.92;;;5.60;99.90;;;;;;5065874;28;20341;-57
2024/01/31 09:50:11;;;;;;;10.27;4.75;;;5.60;99.90;;;;;;5068066;28;20083;-57
2024/01/31 09:52:40;;;;;;;9.43;4.85;;;5.80;99.90;;;;;;5066085;28;20457;-58
2024/01/31 09:55:10;;;;;;;11.38;5.03;;;5.70;99.90;;;;;;5067829;28;20507;-56
2024/01/31 09:57:36;;;;;;;11.02;5.00;;;5.70;99.90;;;;;;5064179;28;20039;-58
2024/01/31 10:00:03;;;;;;;10.15;4.70;;;5.80;99.90;;;;;;5063035;28;20055;-58
2024/01/31 10:02:32;;;;;;;9.95;4.95;;;5.80;99.90;;;;;;5065837;28;20629;-57
2024/01/31 10:04:58;;;;;;;8.88;4.80;;;5.80;99.90;;;;;;5064383;28;20032;-58
2024/01/31 10:07:30;;;;;;;10.70;5.22;;;5.80;99.90;;;;;;5065807;28;20036;-56
2024/01/31 10:09:56;;;;;;;10.45;5.47;;;5.90;99.90;;;;;;5066921;28;20056;-56
2024/01/31 10:12:23;;;;;;;11.88;5.55;;;5.90;99.90;;;;;;5065775;28;20089;-55
2024/01/31 10:14:52;;;;;;;11.77;5.82;;;5.80;99.90;;;;;;5064301;28;20100;-56
2024/01/31 10:17:22;;;;;;;13.05;5.53;;;5.80;99.90;;;;;;5066569;28;20044;-58
2024/01/31 10:19:51;;;;;;;12.05;5.88;;;5.80;99.90;;;;;;5065970;28;20407;-57
2024/01/31 10:22:17;;;;;;;10.75;5.80;;;5.90;99.90;;;;;;5064328;28;20387;-55
2024/01/31 10:24:49;;;;;;;13.45;6.32;;;5.90;99.90;;;;;;5065847;28;20037;-55
2024/01/31 10:27:14;;;;;;;12.05;7.05;;;6.00;99.90;;;;;;5064308;28;20455;-56
2024/01/31 10:29:40;;;;;;;12.85;6.82;;;6.10;99.90;;;;;;5065698;28;20091;-56
2024/01/31 10:32:06;;;;;;;14.38;7.70;;;6.00;99.90;;;;;;5065011;28;20117;-58
2024/01/31 10:34:36;;;;;;;13.52;7.60;;;6.00;99.90;;;;;;5063540;28;20036;-57
2024/01/31 10:37:03;;;;;;;14.82;9.05;;;6.00;99.90;;;;;;5066855;28;20040;-57
2024/01/31 10:39:30;;;;;;;13.75;8.98;;;5.90;99.90;;;;;;5067000;28;20060;-57
2024/01/31 10:41:56;;;;;;;18.40;9.20;;;6.00;99.90;;;;;;5064097;28;20032;-55
2024/01/31 10:44:22;;;;;;;14.30;9.32;;;5.80;99.90;;;;;;5063511;28;20484;-57
2024/01/31 10:46:48;;;;;;;15.18;9.75;;;5.90;99.90;;;;;;5064287;28;20032;-57
2024/01/31 10:49:17;;;;;;;16.73;8.88;;;6.00;99.90;;;;;;5065163;28;20068;-58
2024/01/31 10:51:46;;;;;;;18.60;9.70;;;6.20;99.90;;;;;;5064315;28;20415;-57
2024/01/31 10:54:15;;;;;;;15.68;9.65;;;5.90;99.90;;;;;;5061179;28;20064;-57
2024/01/31 10:56:41;;;;;;;18.00;10.00;;;5.80;99.90;;;;;;5063835;28;20044;-57
2024/01/31 10:59:07;;;;;;;17.40;10.25;;;6.00;99.90;;;;;;5063836;28;20040;-57
2024/01/31 11:01:33;;;;;;;16.65;10.15;;;5.90;99.90;;;;;;5064329;28;20113;-57
2024/01/31 11:04:02;;;;;;;13.75;9.63;;;6.00;99.90;;;;;;5062885;28;20064;-56
2024/01/31 11:06:41;;;;;;;15.88;9.30;;;5.90;99.90;;;;;;5057986;28;20107;-56
2024/01/31 11:09:15;;;;;;;14.32;9.00;;;6.00;99.90;;;;;;5060227;28;20029;-55
2024/01/31 11:11:41;;;;;;;12.85;8.57;;;6.00;99.90;;;;;;5062031;28;20440;-57
2024/01/31 11:14:08;;;;;;;12.48;8.25;;;6.10;99.90;;;;;;5059970;28;20067;-55
2024/01/31 11:16:34;;;;;;;12.60;7.40;;;6.10;99.90;;;;;;5058697;28;20036;-57
2024/01/31 11:19:03;;;;;;;13.18;8.00;;;6.20;99.90;;;;;;5060026;28;20643;-57
2024/01/31 11:21:38;;;;;;;12.80;7.75;;;6.10;99.90;;;;;;5056075;28;20046;-57
2024/01/31 11:24:04;;;;;;;14.43;7.88;;;6.30;99.90;;;;;;5070291;28;20032;-55
2024/01/31 11:26:33;;;;;;;13.27;7.65;;;6.40;99.90;;;;;;5057907;28;20123;-55
2024/01/31 11:29:01;;;;;;;13.18;8.95;;;6.30;99.90;;;;;;5057800;28;20086;-56
2024/01/31 11:31:28;;;;;;;14.52;8.55;;;6.40;99.90;;;;;;5063259;28;20056;-57
2024/01/31 11:33:56;;;;;;;12.07;7.82;;;6.50;99.90;;;;;;5069094;28;20076;-57
2024/01/31 11:36:22;;;;;;;13.07;8.25;;;6.60;99.90;;;;;;5070190;28;20051;-57
2024/01/31 11:38:48;;;;;;;12.10;8.23;;;6.60;99.90;;;;;;5051160;28;20045;-55
2024/01/31 11:41:13;;;;;;;13.30;8.38;;;6.60;99.90;;;;;;5068832;28;20033;-56
2024/01/31 11:43:39;;;;;;;11.55;7.88;;;6.70;99.90;;;;;;5068616;28;20075;-54
2024/01/31 11:46:05;;;;;;;12.30;7.57;;;6.70;99.90;;;;;;5070970;28;20044;-55
2024/01/31 11:48:32;;;;;;;11.80;8.20;;;6.70;99.90;;;;;;5071299;28;20475;-54
2024/01/31 11:50:58;;;;;;;10.98;7.55;;;6.70;99.90;;;;;;5071268;28;20472;-56
2024/01/31 11:53:24;;;;;;;14.00;8.18;;;6.70;99.90;;;;;;5070490;28;20090;-56
2024/01/31 11:55:50;;;;;;;11.95;7.55;;;6.80;99.90;;;;;;5070976;28;20074;-54
2024/01/31 11:58:16;;;;;;;11.93;7.40;;;6.70;99.90;;;;;;5070219;28;20028;-51
2024/01/31 12:00:42;;;;;;;11.95;7.20;;;6.80;99.90;;;;;;5070820;28;20039;-55
2024/01/31 12:03:08;;;;;;;13.68;8.13;;;6.70;99.90;;;;;;5070615;28;20036;-56
2024/01/31 12:05:34;;;;;;;14.00;8.80;;;6.90;99.90;;;;;;5070731;28;20115;-54
2024/01/31 12:08:00;;;;;;;16.60;9.27;;;6.80;99.90;;;;;;5070960;28;20535;-56
2024/01/31 12:10:27;;;;;;;13.80;8.75;;;6.80;99.90;;;;;;5070603;28;20649;-57
2024/01/31 12:13:00;;;;;;;16.20;9.18;;;6.80;99.90;;;;;;5070767;28;20475;-55
2024/01/31 12:15:27;;;;;;;13.35;9.10;;;6.80;99.90;;;;;;5070726;28;20040;-56
2024/01/31 12:17:53;;;;;;;16.95;11.07;;;6.70;99.90;;;;;;5070505;28;20411;-55
2024/01/31 12:20:20;;;;;;;14.90;10.90;;;6.70;99.90;;;;;;5071442;28;20032;-52
2024/01/31 12:22:45;;;;;;;15.88;11.27;;;6.80;99.90;;;;;;5074538;28;20111;-56
2024/01/31 12:25:11;;;;;;;14.75;10.90;;;6.80;99.90;;;;;;5075031;28;20175;-55
2024/01/31 12:27:37;;;;;;;14.60;10.60;;;6.70;99.90;;;;;;5074940;28;20064;-55
2024/01/31 12:30:04;;;;;;;14.25;9.77;;;6.90;99.90;;;;;;5074753;28;20044;-55
2024/01/31 12:32:30;;;;;;;17.70;10.30;;;6.80;99.90;;;;;;5074507;28;20040;-56
2024/01/31 12:34:56;;;;;;;15.68;9.38;;;6.80;99.90;;;;;;5073926;28;20039;-54
2024/01/31 12:37:22;;;;;;;12.25;8.52;;;6.80;99.90;;;;;;5074018;28;20036;-55
2024/01/31 12:39:47;;;;;;;13.85;8.85;;;6.80;99.90;;;;;;5074301;28;20036;-54
2024/01/31 12:42:13;;;;;;;13.10;8.25;;;6.80;99.90;;;;;;5074236;28;20506;-56
2024/01/31 12:44:39;;;;;;;12.60;8.05;;;6.80;99.90;;;;;;5074374;28;20048;-54